createdAt,value
2018-09-18T00:00:35.260Z,101316.91
2018-09-18T00:03:03.746Z,101324.02
2018-09-18T00:05:32.225Z,101316.77
2018-09-18T00:08:00.722Z,101312.63
2018-09-18T00:10:29.249Z,101310.88
2018-09-18T00:12:57.723Z,101315.86
2018-09-18T00:15:26.233Z,101310.94
2018-09-18T00:17:54.709Z,101312.44
2018-09-18T00:20:23.220Z,101307.66
2018-09-18T00:22:51.694Z,101312.84
2018-09-18T00:25:20.251Z,101312.84
2018-09-18T00:27:48.743Z,101318.44
2018-09-18T00:30:17.232Z,101313.27
2018-09-18T00:32:45.721Z,101314.31
2018-09-18T00:35:17.467Z,101314.09
2018-09-18T00:37:45.948Z,101310.82
2018-09-18T00:40:14.438Z,101313.05
2018-09-18T00:42:42.932Z,101306.03
2018-09-18T00:45:11.384Z,101306.84
2018-09-18T00:47:39.885Z,101298.37
2018-09-18T00:50:08.437Z,101299.27
2018-09-18T00:52:36.899Z,101290.77
2018-09-18T00:55:05.464Z,101294.52
2018-09-18T00:57:33.981Z,101288.36
2018-09-18T01:00:02.449Z,101291.59
2018-09-18T01:02:31.231Z,101288.59
2018-09-18T01:04:59.973Z,101288.45
2018-09-18T01:07:28.487Z,101285.83
2018-09-18T01:09:56.925Z,101287.56
2018-09-18T01:12:25.500Z,101291.68
2018-09-18T01:14:54.055Z,101285.25
2018-09-18T01:17:22.524Z,101283.30
2018-09-18T01:19:51.000Z,101271.33
2018-09-18T01:22:19.557Z,101274.41
2018-09-18T01:24:47.999Z,101275.59
2018-09-18T01:27:16.483Z,101274.17
2018-09-18T01:29:44.979Z,101274.33
2018-09-18T01:32:13.476Z,101268.25
2018-09-18T01:34:41.975Z,101270.36
2018-09-18T01:37:10.454Z,101264.98
2018-09-18T01:39:38.925Z,101269.22
2018-09-18T01:42:07.724Z,101256.38
2018-09-18T01:44:36.474Z,101256.23
2018-09-18T01:47:04.988Z,101256.91
2018-09-18T01:49:33.430Z,101259.06
2018-09-18T01:52:01.934Z,101259.38
2018-09-18T01:54:30.376Z,101257.42
2018-09-18T01:56:58.897Z,101259.66
2018-09-18T01:59:27.371Z,101255.92
2018-09-18T02:01:55.857Z,101257.42
2018-09-18T02:04:24.328Z,101254.73
2018-09-18T02:06:52.861Z,101260.84
2018-09-18T02:09:21.364Z,101250.77
2018-09-18T02:11:49.820Z,101254.88
2018-09-18T02:14:18.300Z,101255.77
2018-09-18T02:16:46.766Z,101259.50
2018-09-18T02:19:15.224Z,101253.16
2018-09-18T02:21:43.696Z,101256.16
2018-09-18T02:24:12.176Z,101245.97
2018-09-18T02:26:40.676Z,101258.77
2018-09-18T02:29:09.115Z,101252.62
2018-09-18T02:31:37.596Z,101245.73
2018-09-18T02:34:06.214Z,101243.96
2018-09-18T02:36:34.684Z,101249.61
2018-09-18T02:39:03.356Z,101242.38
2018-09-18T02:41:31.793Z,101245.34
2018-09-18T02:44:00.532Z,101252.38
2018-09-18T02:46:29.023Z,101246.60
2018-09-18T02:48:57.491Z,101245.58
2018-09-18T02:51:26.001Z,101245.80
2018-09-18T02:53:54.560Z,101246.48
2018-09-18T02:56:23.020Z,101240.49
2018-09-18T02:58:51.559Z,101240.95
2018-09-18T03:01:20.038Z,101239.60
2018-09-18T03:03:48.584Z,101240.03
2018-09-18T03:06:17.048Z,101232.72
2018-09-18T03:08:45.575Z,101237.95
2018-09-18T03:11:14.078Z,101232.11
2018-09-18T03:13:42.536Z,101232.25
2018-09-18T03:16:10.987Z,101223.73
2018-09-18T03:18:39.469Z,101225.23
2018-09-18T03:21:08.494Z,101225.69
2018-09-18T03:23:36.940Z,101218.23
2018-09-18T03:26:05.444Z,101222.69
2018-09-18T03:28:33.903Z,101223.56
2018-09-18T03:31:02.393Z,101220.55
2018-09-18T03:33:30.893Z,101218.28
2018-09-18T03:35:59.350Z,101211.26
2018-09-18T03:38:27.865Z,101213.11
2018-09-18T03:40:56.322Z,101210.95
2018-09-18T03:43:24.755Z,101200.27
2018-09-18T03:45:53.232Z,101202.36
2018-09-18T03:48:21.732Z,101200.13
2018-09-18T03:50:50.246Z,101199.75
2018-09-18T03:53:18.822Z,101195.55
2018-09-18T03:55:47.468Z,101185.59
2018-09-18T03:58:15.952Z,101189.94
2018-09-18T04:00:44.770Z,101186.75
2018-09-18T04:03:13.267Z,101190.16
2018-09-18T04:05:41.757Z,101184.91
2018-09-18T04:08:10.328Z,101186.48
2018-09-18T04:10:38.828Z,101190.66
2018-09-18T04:13:07.736Z,101185.44
2018-09-18T04:15:36.252Z,101190.13
2018-09-18T04:18:04.784Z,101183.01
2018-09-18T04:20:33.442Z,101188.55
2018-09-18T04:23:02.068Z,101177.80
2018-09-18T04:25:30.565Z,101174.88
2018-09-18T04:27:59.099Z,101174.38
2018-09-18T04:30:27.579Z,101174.88
2018-09-18T04:32:56.061Z,101174.95
2018-09-18T04:35:24.661Z,101176.37
2018-09-18T04:37:53.175Z,101167.88
2018-09-18T04:40:21.676Z,101166.97
2018-09-18T04:42:50.120Z,101169.08
2018-09-18T04:45:18.616Z,101164.89
2018-09-18T04:47:47.273Z,101162.42
2018-09-18T04:50:15.801Z,101155.33
2018-09-18T04:52:44.268Z,101164.97
2018-09-18T04:55:12.800Z,101154.52
2018-09-18T04:57:41.325Z,101155.98
2018-09-18T05:00:09.858Z,101154.41
2018-09-18T05:02:38.815Z,101157.09
2018-09-18T05:05:07.442Z,101158.71
2018-09-18T05:07:35.912Z,101168.13
2018-09-18T05:10:04.473Z,101163.92
2018-09-18T05:12:32.993Z,101165.52
2018-09-18T05:15:01.444Z,101167.42
2018-09-18T05:17:29.937Z,101159.78
2018-09-18T05:19:58.392Z,101156.22
2018-09-18T05:22:27.064Z,101161.63
2018-09-18T05:24:55.504Z,101165.09
2018-09-18T05:27:25.031Z,101160.37
2018-09-18T05:29:53.671Z,101159.41
2018-09-18T05:32:22.276Z,101156.80
2018-09-18T05:34:50.733Z,101158.59
2018-09-18T05:37:19.202Z,101160.68
2018-09-18T05:39:47.712Z,101155.37
2018-09-18T05:42:16.192Z,101153.95
2018-09-18T05:44:44.717Z,101163.37
2018-09-18T05:47:13.541Z,101157.56
2018-09-18T05:49:42.109Z,101154.48
2018-09-18T05:52:10.600Z,101161.66
2018-09-18T05:54:39.108Z,101152.09
2018-09-18T05:57:07.658Z,101149.23
2018-09-18T05:59:36.132Z,101152.08
2018-09-18T06:02:04.737Z,101144.38
2018-09-18T06:04:33.189Z,101144.68
2018-09-18T06:07:01.656Z,101137.33
2018-09-18T06:09:30.261Z,101142.55
2018-09-18T06:11:58.741Z,101139.65
2018-09-18T06:14:27.292Z,101138.52
2018-09-18T06:16:55.754Z,101134.88
2018-09-18T06:19:24.273Z,101132.94
2018-09-18T06:21:52.726Z,101135.16
2018-09-18T06:24:21.299Z,101138.83
2018-09-18T06:26:53.448Z,101133.20
2018-09-18T06:29:22.029Z,101135.08
2018-09-18T06:31:50.524Z,101135.34
2018-09-18T06:34:19.003Z,101130.69
2018-09-18T06:36:47.495Z,101135.72
2018-09-18T06:39:15.981Z,101130.45
2018-09-18T06:41:44.477Z,101134.48
2018-09-18T06:44:12.952Z,101136.19
2018-09-18T06:46:41.524Z,101135.89
2018-09-18T06:49:10.040Z,101130.97
2018-09-18T06:51:38.519Z,101125.66
2018-09-18T06:54:07.177Z,101126.80
2018-09-18T06:56:51.739Z,101127.02
2018-09-18T06:59:20.503Z,101126.27
2018-09-18T07:01:49.026Z,101124.07
2018-09-18T07:04:17.656Z,101120.02
2018-09-18T07:06:46.273Z,101124.02
2018-09-18T07:09:14.778Z,101126.14
2018-09-18T07:11:43.327Z,101131.09
2018-09-18T07:14:11.913Z,101125.73
2018-09-18T07:16:40.542Z,101121.28
2018-09-18T07:19:09.061Z,101123.66
2018-09-18T07:21:37.581Z,101121.64
2018-09-18T07:24:06.123Z,101116.95
2018-09-18T07:26:34.667Z,101115.77
2018-09-18T07:29:03.220Z,101110.12
2018-09-18T07:31:31.741Z,101108.16
2018-09-18T07:34:00.282Z,101106.70
2018-09-18T07:36:28.820Z,101098.36
2018-09-18T07:38:57.378Z,101101.27
2018-09-18T07:41:26.202Z,101104.64
2018-09-18T07:43:55.059Z,101097.70
2018-09-18T07:46:23.599Z,101099.48
2018-09-18T07:48:52.148Z,101098.52
2018-09-18T07:51:20.644Z,101093.50
2018-09-18T07:53:49.212Z,101093.02
2018-09-18T07:56:17.759Z,101093.30
2018-09-18T07:58:46.256Z,101088.75
2018-09-18T08:01:14.756Z,101097.16
2018-09-18T08:03:43.290Z,101086.12
2018-09-18T08:06:11.989Z,101079.88
2018-09-18T08:08:40.546Z,101091.59
2018-09-18T08:11:09.053Z,101092.97
2018-09-18T08:13:37.622Z,101091.89
2018-09-18T08:16:06.262Z,101087.53
2018-09-18T08:18:34.784Z,101084.80
2018-09-18T08:21:03.365Z,101088.31
2018-09-18T08:23:31.901Z,101083.84
2018-09-18T08:26:00.420Z,101082.89
2018-09-18T08:28:29.004Z,101079.26
2018-09-18T08:30:57.519Z,101081.60
2018-09-18T08:33:26.044Z,101074.36
2018-09-18T08:35:54.731Z,101077.16
2018-09-18T08:38:23.443Z,101077.33
2018-09-18T08:40:52.042Z,101071.89
2018-09-18T08:43:20.564Z,101070.92
2018-09-18T08:45:49.288Z,101073.22
2018-09-18T08:48:17.809Z,101070.63
2018-09-18T08:50:46.317Z,101066.86
2018-09-18T08:53:14.926Z,101068.30
2018-09-18T08:55:43.437Z,101068.58
2018-09-18T08:58:12.044Z,101061.66
2018-09-18T09:00:40.555Z,101062.28
2018-09-18T09:03:09.079Z,101054.88
2018-09-18T09:05:39.358Z,101058.94
2018-09-18T09:08:08.368Z,101050.95
2018-09-18T09:10:36.793Z,101057.62
2018-09-18T09:13:05.390Z,101050.50
2018-09-18T09:15:34.386Z,101051.86
2018-09-18T09:18:03.011Z,101041.36
2018-09-18T09:20:32.769Z,101039.75
2018-09-18T09:23:01.363Z,101030.80
2018-09-18T09:25:30.432Z,101026.48
2018-09-18T09:27:59.025Z,101029.19
2018-09-18T09:30:27.724Z,101023.02
2018-09-18T09:32:56.248Z,101018.54
2018-09-18T09:35:24.799Z,101017.77
2018-09-18T09:37:53.359Z,101021.40
2018-09-18T09:40:21.890Z,101021.70
2018-09-18T09:42:50.371Z,101016.91
2018-09-18T09:45:18.859Z,101014.02
2018-09-18T09:47:47.345Z,101014.30
2018-09-18T09:50:15.857Z,101012.38
2018-09-18T09:52:44.458Z,101011.97
2018-09-18T09:55:13.056Z,101009.22
2018-09-18T09:57:42.060Z,101010.45
2018-09-18T10:01:17.291Z,101012.81
2018-09-18T10:03:45.911Z,101007.84
2018-09-18T10:06:14.472Z,100998.55
2018-09-18T10:08:42.980Z,100999.46
2018-09-18T10:11:11.546Z,100993.41
2018-09-18T10:13:40.085Z,100981.29
2018-09-18T10:16:08.721Z,100984.30
2018-09-18T10:18:37.289Z,100978.21
2018-09-18T10:21:05.972Z,100977.62
2018-09-18T10:23:34.532Z,100968.17
2018-09-18T10:26:03.153Z,100968.42
2018-09-18T10:28:31.594Z,100966.97
2018-09-18T10:31:00.129Z,100978.58
2018-09-18T10:33:28.644Z,100963.09
2018-09-18T10:35:57.248Z,100964.25
2018-09-18T10:38:25.801Z,100961.28
2018-09-18T10:40:54.404Z,100952.54
2018-09-18T10:43:23.093Z,100955.50
2018-09-18T10:45:51.626Z,100954.91
2018-09-18T10:48:20.140Z,100952.02
2018-09-18T10:50:48.683Z,100944.91
2018-09-18T10:53:17.269Z,100941.52
2018-09-18T10:55:45.757Z,100942.13
2018-09-18T10:58:14.261Z,100933.07
2018-09-18T11:00:42.846Z,100931.47
2018-09-18T11:03:11.375Z,100925.17
2018-09-18T11:05:39.917Z,100914.52
2018-09-18T11:08:08.399Z,100918.89
2018-09-18T11:10:36.889Z,100904.39
2018-09-18T11:13:05.409Z,100902.39
2018-09-18T11:15:34.006Z,100904.69
2018-09-18T11:18:02.533Z,100900.17
2018-09-18T11:20:31.035Z,100901.91
2018-09-18T11:22:59.678Z,100896.61
2018-09-18T11:25:28.205Z,100900.08
2018-09-18T11:27:56.702Z,100899.10
2018-09-18T11:30:25.242Z,100891.33
2018-09-18T11:32:53.753Z,100895.54
2018-09-18T11:35:22.290Z,100898.37
2018-09-18T11:37:50.840Z,100882.38
2018-09-18T11:40:19.415Z,100892.50
2018-09-18T11:42:47.887Z,100885.70
2018-09-18T11:45:16.418Z,100886.47
2018-09-18T11:47:44.985Z,100875.12
2018-09-18T11:50:13.498Z,100887.31
2018-09-18T11:52:42.151Z,100880.90
2018-09-18T11:55:10.680Z,100874.08
2018-09-18T11:57:39.204Z,100875.46
2018-09-18T12:00:07.822Z,100864.14
2018-09-18T12:02:36.320Z,100879.34
2018-09-18T12:05:04.915Z,100876.77
2018-09-18T12:07:33.421Z,100867.83
2018-09-18T12:10:01.999Z,100869.53
2018-09-18T12:12:30.516Z,100870.56
2018-09-18T12:14:59.365Z,100859.18
2018-09-18T12:17:27.886Z,100858.91
2018-09-18T12:19:56.404Z,100861.53
2018-09-18T12:22:25.003Z,100866.64
2018-09-18T12:24:53.426Z,100850.83
2018-09-18T12:27:22.309Z,100850.64
2018-09-18T12:29:50.837Z,100852.52
2018-09-18T12:32:19.368Z,100848.95
2018-09-18T12:34:47.850Z,100844.30
2018-09-18T12:37:16.346Z,100836.31
2018-09-18T12:39:44.851Z,100839.02
2018-09-18T12:42:13.564Z,100844.11
2018-09-18T12:44:42.007Z,100840.99
2018-09-18T12:47:10.598Z,100832.63
2018-09-18T12:49:39.268Z,100831.30
2018-09-18T12:52:07.736Z,100828.22
2018-09-18T12:54:36.235Z,100823.37
2018-09-18T12:57:04.861Z,100828.68
2018-09-18T12:59:33.724Z,100836.70
2018-09-18T13:02:02.453Z,100828.14
2018-09-18T13:04:31.422Z,100824.42
2018-09-18T13:07:00.407Z,100815.55
2018-09-18T13:09:29.118Z,100818.02
2018-09-18T13:11:57.927Z,100813.63
2018-09-18T13:14:26.782Z,100810.88
2018-09-18T13:16:55.564Z,100807.05
2018-09-18T13:19:24.345Z,100802.97
2018-09-18T13:21:53.378Z,100801.87
2018-09-18T13:24:22.375Z,100802.86
2018-09-18T13:26:51.445Z,100803.55
2018-09-18T13:29:20.209Z,100797.44
2018-09-18T13:31:49.166Z,100785.31
2018-09-18T13:34:18.165Z,100780.84
2018-09-18T13:36:46.893Z,100787.00
2018-09-18T13:39:15.692Z,100780.05
2018-09-18T13:41:44.417Z,100781.25
2018-09-18T13:44:13.218Z,100777.16
2018-09-18T13:46:42.031Z,100770.42
2018-09-18T13:49:10.815Z,100765.73
2018-09-18T13:51:39.553Z,100761.95
2018-09-18T13:54:08.390Z,100762.90
2018-09-18T13:56:38.230Z,100750.44
2018-09-18T13:59:07.171Z,100755.98
2018-09-18T14:01:36.046Z,100756.20
2018-09-18T14:04:04.746Z,100749.27
2018-09-18T14:06:33.548Z,100755.87
2018-09-18T14:09:02.654Z,100759.44
2018-09-18T14:11:31.530Z,100761.38
2018-09-18T14:14:00.349Z,100746.33
2018-09-18T14:16:29.217Z,100751.76
2018-09-18T14:18:57.991Z,100749.58
2018-09-18T14:21:26.770Z,100742.79
2018-09-18T14:23:55.844Z,100747.67
2018-09-18T14:26:24.722Z,100743.77
2018-09-18T14:28:55.485Z,100739.59
2018-09-18T14:31:24.251Z,100737.77
2018-09-18T14:33:52.992Z,100747.38
2018-09-18T14:36:21.769Z,100746.17
2018-09-18T14:38:50.598Z,100729.86
2018-09-18T14:41:19.635Z,100741.92
2018-09-18T14:43:48.413Z,100737.22
2018-09-18T14:46:17.379Z,100743.83
2018-09-18T14:48:46.108Z,100744.58
2018-09-18T14:51:14.931Z,100741.27
2018-09-18T14:53:43.668Z,100739.13
2018-09-18T14:56:12.410Z,100736.31
2018-09-18T14:58:41.207Z,100730.69
2018-09-18T15:01:10.005Z,100735.89
2018-09-18T15:03:38.789Z,100737.25
2018-09-18T15:06:07.526Z,100734.73
2018-09-18T15:08:36.394Z,100736.87
2018-09-18T15:11:05.049Z,100735.89
2018-09-18T15:13:33.868Z,100739.48
2018-09-18T15:16:02.651Z,100741.84
2018-09-18T15:18:31.437Z,100732.84
2018-09-18T15:21:00.094Z,100746.63
2018-09-18T15:23:28.818Z,100749.17
2018-09-18T15:25:57.619Z,100750.56
2018-09-18T15:28:26.412Z,100746.63
2018-09-18T15:30:55.302Z,100751.53
2018-09-18T15:33:24.075Z,100753.38
2018-09-18T15:35:52.853Z,100755.11
2018-09-18T15:38:21.714Z,100756.38
2018-09-18T15:40:50.482Z,100754.43
2018-09-18T15:43:20.252Z,100760.20
2018-09-18T15:45:49.992Z,100755.73
2018-09-18T15:48:18.767Z,100765.29
2018-09-18T15:50:47.766Z,100771.12
2018-09-18T15:53:16.819Z,100770.97
2018-09-18T15:55:45.654Z,100762.65
2018-09-18T15:58:14.446Z,100771.63
2018-09-18T16:00:43.265Z,100771.20
2018-09-18T16:03:12.092Z,100782.07
2018-09-18T16:05:40.946Z,100776.67
2018-09-18T16:08:09.753Z,100776.64
2018-09-18T16:10:38.699Z,100783.48
2018-09-18T16:13:07.726Z,100785.98
2018-09-18T16:15:36.729Z,100790.84
2018-09-18T16:18:05.883Z,100797.13
2018-09-18T16:20:34.857Z,100801.06
2018-09-18T16:23:03.704Z,100800.95
2018-09-18T16:25:32.546Z,100796.94
2018-09-18T16:28:01.385Z,100803.34
2018-09-18T16:30:30.198Z,100811.50
2018-09-18T16:32:59.041Z,100808.56
2018-09-18T16:35:28.135Z,100810.70
2018-09-18T16:37:56.914Z,100810.51
2018-09-18T16:40:25.678Z,100818.81
2018-09-18T16:42:54.328Z,100813.59
2018-09-18T16:45:22.935Z,100815.00
2018-09-18T16:47:52.709Z,100815.26
2018-09-18T16:50:21.350Z,100818.53
2018-09-18T16:52:50.063Z,100811.64
2018-09-18T16:55:18.718Z,100785.69
2018-09-18T16:57:48.575Z,100821.59
2018-09-18T17:00:17.296Z,100822.21
2018-09-18T17:02:46.099Z,100827.20
2018-09-18T17:05:14.827Z,100828.16
2018-09-18T17:07:43.618Z,100831.16
2018-09-18T17:10:12.475Z,100831.84
2018-09-18T17:12:41.203Z,100830.45
2018-09-18T17:15:09.894Z,100829.41
2018-09-18T17:17:38.567Z,100832.38
2018-09-18T17:20:07.296Z,100831.50
2018-09-18T17:22:38.213Z,100835.25
2018-09-18T17:25:06.937Z,100837.05
2018-09-18T17:27:35.606Z,100848.16
2018-09-18T17:30:04.361Z,100850.63
2018-09-18T17:32:33.027Z,100859.03
2018-09-18T17:35:01.706Z,100857.56
2018-09-18T17:37:30.342Z,100863.45
2018-09-18T17:39:59.189Z,100864.47
2018-09-18T17:42:27.787Z,100874.47
2018-09-18T17:44:56.453Z,100883.49
2018-09-18T17:47:25.162Z,100883.32
2018-09-18T17:49:53.834Z,100889.27
2018-09-18T17:52:22.647Z,100891.32
2018-09-18T17:54:51.348Z,100896.67
2018-09-18T17:57:20.076Z,100901.18
2018-09-18T17:59:48.758Z,100902.00
2018-09-18T18:02:17.457Z,100915.19
2018-09-18T18:04:46.104Z,100911.95
2018-09-18T18:07:14.841Z,100915.18
2018-09-18T18:09:43.526Z,100919.06
2018-09-18T18:12:12.272Z,100919.30
2018-09-18T18:14:40.975Z,100945.87
2018-09-18T18:17:09.681Z,100942.95
2018-09-18T18:19:38.339Z,100944.12
2018-09-18T18:22:07.234Z,100953.30
2018-09-18T18:24:35.951Z,100954.03
2018-09-18T18:27:04.579Z,100963.92
2018-09-18T18:29:33.335Z,100964.98
2018-09-18T18:32:02.006Z,100968.91
2018-09-18T18:34:30.643Z,100976.61
2018-09-18T18:36:59.329Z,100985.18
2018-09-18T18:39:28.006Z,100992.67
2018-09-18T18:41:57.012Z,101002.11
2018-09-18T18:44:25.649Z,101006.41
2018-09-18T18:46:54.349Z,101011.18
2018-09-18T18:49:23.010Z,101003.77
2018-09-18T18:51:51.714Z,101012.12
2018-09-18T18:54:20.459Z,101016.93
2018-09-18T18:56:49.153Z,101020.01
2018-09-18T18:59:17.818Z,101030.86
2018-09-18T19:01:46.443Z,101037.39
2018-09-18T19:04:15.139Z,101041.84
2018-09-18T19:06:43.923Z,101044.13
2018-09-18T19:09:12.566Z,101052.66
2018-09-18T19:11:41.329Z,101057.02
2018-09-18T19:14:10.054Z,101070.90
2018-09-18T19:16:38.775Z,101003.69
2018-09-18T19:19:07.521Z,101072.03
2018-09-18T19:21:36.162Z,101088.02
2018-09-18T19:24:04.926Z,101087.99
2018-09-18T19:26:33.879Z,101092.96
2018-09-18T19:29:02.610Z,101102.66
2018-09-18T19:31:31.343Z,101098.52
2018-09-18T19:34:01.080Z,101112.14
2018-09-18T19:36:29.773Z,101116.06
2018-09-18T19:38:58.542Z,101124.08
2018-09-18T19:41:27.267Z,101130.22
2018-09-18T19:43:55.958Z,101136.28
2018-09-18T19:46:24.714Z,101142.86
2018-09-18T19:48:53.411Z,101154.98
2018-09-18T19:51:22.152Z,101158.46
2018-09-18T19:53:50.864Z,101150.52
2018-09-18T19:56:19.592Z,101154.78
2018-09-18T19:58:48.290Z,101156.28
2018-09-18T20:01:17.059Z,101162.11
2018-09-18T20:03:45.767Z,101169.13
2018-09-18T20:06:14.536Z,101170.16
2018-09-18T20:08:43.395Z,101182.87
2018-09-18T20:11:12.116Z,101174.13
2018-09-18T20:13:40.932Z,101175.95
2018-09-18T20:16:09.647Z,101176.17
2018-09-18T20:18:38.378Z,101183.52
2018-09-18T20:21:47.453Z,101192.98
2018-09-18T20:24:16.346Z,101187.11
2018-09-18T20:26:44.932Z,101195.87
2018-09-18T20:29:13.522Z,101191.68
2018-09-18T20:31:42.110Z,101192.83
2018-09-18T20:34:11.685Z,101197.31
2018-09-18T20:36:40.331Z,101205.29
2018-09-18T20:39:10.501Z,101206.52
2018-09-18T20:43:33.519Z,101210.23
2018-09-18T20:46:02.146Z,101213.28
2018-09-18T20:48:30.961Z,101214.48
2018-09-18T20:50:59.440Z,101217.26
2018-09-18T20:53:28.012Z,101214.56
2018-09-18T20:55:56.658Z,101215.41
2018-09-18T20:58:25.286Z,101218.47
2018-09-18T21:00:53.867Z,101225.05
2018-09-18T21:03:22.492Z,101226.67
2018-09-18T21:05:51.057Z,101233.81
2018-09-18T21:08:19.837Z,101238.23
2018-09-18T21:10:48.410Z,101240.22
2018-09-18T21:13:17.033Z,101243.27
2018-09-18T21:15:45.588Z,101242.52
2018-09-18T21:18:14.108Z,101257.20
2018-09-18T21:20:42.779Z,101255.30
2018-09-18T21:23:11.329Z,101256.17
2018-09-18T21:26:14.765Z,101264.10
2018-09-18T21:28:43.275Z,101276.38
2018-09-18T21:31:11.988Z,101264.09
2018-09-18T21:33:40.499Z,101275.80
2018-09-18T21:36:09.148Z,101271.44
2018-09-18T21:38:37.728Z,101271.16
2018-09-18T21:41:06.339Z,101272.52
2018-09-18T21:43:34.884Z,101280.11
2018-09-18T21:46:03.487Z,101271.66
2018-09-18T21:48:32.048Z,101277.91
2018-09-18T21:51:00.585Z,101279.02
2018-09-18T21:53:29.142Z,101280.67
2018-09-18T21:55:57.914Z,101275.72
2018-09-18T21:58:26.448Z,101270.80
2018-09-18T22:00:54.977Z,101273.55
2018-09-18T22:03:23.616Z,101268.91
2018-09-18T22:05:52.212Z,101284.75
2018-09-18T22:08:20.713Z,101279.64
2018-09-18T22:10:49.326Z,101281.53
2018-09-18T22:13:17.836Z,101286.76
2018-09-18T22:15:46.350Z,101287.02
2018-09-18T22:18:15.250Z,101285.14
2018-09-18T22:20:43.739Z,101284.86
2018-09-18T22:23:12.227Z,101281.34
2018-09-18T22:25:40.772Z,101281.34
2018-09-18T22:28:09.280Z,101288.43
2018-09-18T22:30:37.892Z,101290.32
2018-09-18T22:33:06.481Z,101287.06
2018-09-18T22:35:35.056Z,101290.87
2018-09-18T22:38:03.573Z,101289.50
2018-09-18T22:40:32.073Z,101296.02
2018-09-18T22:43:00.681Z,101292.45
2018-09-18T22:45:29.231Z,101289.44
2018-09-18T22:47:57.737Z,101286.69
2018-09-18T22:50:26.230Z,101292.67
2018-09-18T22:52:54.749Z,101294.58
2018-09-18T22:55:23.328Z,101292.13
2018-09-18T22:57:51.890Z,101297.54
2018-09-18T23:00:20.521Z,101292.91
2018-09-18T23:02:49.099Z,101292.38
2018-09-18T23:05:17.621Z,101293.99
2018-09-18T23:07:46.162Z,101294.20
2018-09-18T23:10:14.989Z,101293.34
2018-09-18T23:12:43.521Z,101288.65
2018-09-18T23:15:12.073Z,101301.17
2018-09-18T23:17:40.592Z,101300.58
2018-09-18T23:20:09.126Z,101301.59
2018-09-18T23:22:37.956Z,101299.59
2018-09-18T23:25:06.542Z,101295.98
2018-09-18T23:27:35.044Z,101294.87
2018-09-18T23:30:03.599Z,101304.14
2018-09-18T23:32:32.139Z,101305.14
2018-09-18T23:35:00.641Z,101308.59
2018-09-18T23:37:29.157Z,101297.64
2018-09-18T23:39:57.733Z,101299.24
2018-09-18T23:42:26.240Z,101304.95
2018-09-18T23:44:54.892Z,101310.34
2018-09-18T23:47:23.394Z,101313.82
2018-09-18T23:49:51.907Z,101320.58
2018-09-18T23:52:20.436Z,101316.02
2018-09-18T23:54:48.956Z,101320.14
2018-09-18T23:57:17.570Z,101314.17
2018-09-18T23:59:46.353Z,101309.77
